createdAt,value
2022-10-17T00:03:00.418Z,15.78
2022-10-17T00:08:03.062Z,15.76
2022-10-17T00:13:07.569Z,15.73
2022-10-17T00:18:10.160Z,15.71
2022-10-17T00:23:12.890Z,15.67
2022-10-17T00:28:17.144Z,15.62
2022-10-17T00:33:19.728Z,15.59
2022-10-17T00:38:22.416Z,15.58
2022-10-17T00:43:26.644Z,15.54
2022-10-17T00:48:29.336Z,15.53
2022-10-17T00:53:32.017Z,15.53
2022-10-17T00:58:36.051Z,15.43
2022-10-17T01:03:38.693Z,15.34
2022-10-17T01:08:41.784Z,15.24
2022-10-17T01:13:48.061Z,15.21
2022-10-17T01:18:57.675Z,15.16
2022-10-17T01:24:15.863Z,15.10
2022-10-17T01:29:57.082Z,15.05
2022-10-17T01:35:05.171Z,15.01
2022-10-17T01:40:11.357Z,14.99
2022-10-17T01:45:16.614Z,14.96
2022-10-17T01:50:24.928Z,14.94
2022-10-17T01:55:32.055Z,14.97
2022-10-17T02:00:35.932Z,14.94
2022-10-17T02:05:42.120Z,14.95
2022-10-17T02:10:50.522Z,14.95
2022-10-17T02:16:06.271Z,14.97
2022-10-17T02:21:16.742Z,14.97
2022-10-17T02:26:22.671Z,14.91
2022-10-17T02:31:27.928Z,14.85
2022-10-17T02:36:34.876Z,14.72
2022-10-17T02:41:38.877Z,14.65
2022-10-17T02:46:42.788Z,14.62
2022-10-17T02:51:52.689Z,14.59
2022-10-17T02:56:58.729Z,14.51
2022-10-17T03:02:04.592Z,14.49
2022-10-17T03:07:08.635Z,14.54
2022-10-17T03:12:11.566Z,14.63
2022-10-17T03:17:14.425Z,14.68
2022-10-17T03:22:18.483Z,14.75
2022-10-17T03:27:22.741Z,14.80
2022-10-17T03:32:25.626Z,14.85
2022-10-17T03:37:29.903Z,14.83
2022-10-17T03:42:33.258Z,14.82
2022-10-17T03:47:36.694Z,14.80
2022-10-17T03:52:40.874Z,14.81
2022-10-17T03:57:45.685Z,14.75
2022-10-17T04:02:49.720Z,14.75
2022-10-17T04:07:57.823Z,14.68
2022-10-17T04:13:22.466Z,14.75
2022-10-17T04:18:25.712Z,14.81
2022-10-17T04:23:29.796Z,14.82
2022-10-17T04:33:42.804Z,14.88
2022-10-17T04:38:47.083Z,14.93
2022-10-17T04:43:51.233Z,14.96
2022-10-17T04:48:55.805Z,14.99
2022-10-17T04:53:59.864Z,15.01
2022-10-17T04:59:02.722Z,15.00
2022-10-17T05:04:05.670Z,14.97
2022-10-17T05:09:09.868Z,15.02
2022-10-17T05:14:12.921Z,15.00
2022-10-17T05:19:15.655Z,14.97
2022-10-17T05:24:23.867Z,14.98
2022-10-17T05:29:26.638Z,15.01
2022-10-17T05:34:38.280Z,15.00
2022-10-17T05:39:42.839Z,15.04
2022-10-17T05:44:46.131Z,15.03
2022-10-17T05:49:52.452Z,15.03
2022-10-17T05:55:02.897Z,15.07
2022-10-17T06:00:07.311Z,15.09
2022-10-17T06:05:20.077Z,15.11
2022-10-17T06:10:24.326Z,15.14
2022-10-17T06:15:27.098Z,15.19
2022-10-17T06:20:45.339Z,15.21
2022-10-17T06:25:51.636Z,15.28
2022-10-17T06:30:54.399Z,15.35
2022-10-17T06:35:58.005Z,15.43
2022-10-17T06:41:08.609Z,15.52
2022-10-17T06:46:11.390Z,15.60
2022-10-17T06:51:17.739Z,15.67
2022-10-17T06:56:26.364Z,15.72
2022-10-17T07:01:46.282Z,15.81
2022-10-17T07:06:50.543Z,15.89
2022-10-17T07:11:58.640Z,15.96
2022-10-17T07:17:01.539Z,16.00
2022-10-17T07:22:07.171Z,16.07
2022-10-17T07:27:13.807Z,16.10
2022-10-17T07:32:16.601Z,16.12
2022-10-17T07:37:19.261Z,16.18
2022-10-17T07:42:30.024Z,16.25
2022-10-17T07:47:35.678Z,16.32
2022-10-17T07:52:39.423Z,16.41
2022-10-17T07:57:43.569Z,16.52
2022-10-17T08:02:46.313Z,16.59
2022-10-17T08:07:49.011Z,16.69
2022-10-17T08:12:52.967Z,16.76
2022-10-17T08:17:55.902Z,16.82
2022-10-17T08:22:58.597Z,16.89
2022-10-17T08:28:02.851Z,16.95
2022-10-17T08:33:06.258Z,17.02
2022-10-17T08:38:12.249Z,17.09
2022-10-17T08:43:33.266Z,17.21
2022-10-17T08:48:44.066Z,17.36
2022-10-17T08:53:51.906Z,17.59
2022-10-17T08:58:55.910Z,17.75
2022-10-17T09:04:07.852Z,17.98
2022-10-17T09:09:19.588Z,18.20
2022-10-17T09:14:38.009Z,18.30
2022-10-17T09:19:42.739Z,18.48
2022-10-17T09:24:48.734Z,18.66
2022-10-17T09:29:55.962Z,18.77
2022-10-17T09:34:58.826Z,18.82
2022-10-17T09:40:01.452Z,18.93
2022-10-17T09:45:18.623Z,19.12
2022-10-17T09:50:22.946Z,19.25
2022-10-17T09:55:31.106Z,19.41
2022-10-17T10:00:36.497Z,19.57
2022-10-17T10:05:39.448Z,19.69
2022-10-17T10:10:43.139Z,19.84
2022-10-17T10:15:48.928Z,20.06
2022-10-17T10:21:04.975Z,20.30
2022-10-17T10:26:21.055Z,20.51
2022-10-17T10:31:30.700Z,20.61
2022-10-17T10:36:59.483Z,20.89
2022-10-17T10:42:03.342Z,21.11
2022-10-17T10:47:17.652Z,21.37
2022-10-17T10:52:33.961Z,21.52
2022-10-17T10:57:38.580Z,21.68
2022-10-17T11:02:49.731Z,21.68
2022-10-17T11:07:56.105Z,21.93
2022-10-17T11:13:02.544Z,22.20
2022-10-17T11:18:08.462Z,22.29
2022-10-17T11:23:21.359Z,22.82
2022-10-17T11:28:24.844Z,23.45
2022-10-17T11:33:35.407Z,23.91
2022-10-17T11:38:42.965Z,23.82
2022-10-17T11:43:51.227Z,23.97
2022-10-17T11:49:02.185Z,24.14
2022-10-17T11:54:09.890Z,24.48
2022-10-17T11:59:30.235Z,24.65
2022-10-17T12:04:44.847Z,24.43
2022-10-17T12:09:55.779Z,24.69
2022-10-17T12:15:30.078Z,24.75
2022-10-17T12:20:36.129Z,24.93
2022-10-17T12:25:49.629Z,25.07
2022-10-17T12:30:56.066Z,25.02
2022-10-17T12:36:50.162Z,24.96
2022-10-17T12:41:57.018Z,24.93
2022-10-17T12:47:00.233Z,24.77
2022-10-17T12:52:16.830Z,24.60
2022-10-17T12:57:24.130Z,24.41
2022-10-17T13:02:28.569Z,24.30
2022-10-17T13:07:31.570Z,24.24
2022-10-17T13:12:41.166Z,24.35
2022-10-17T13:17:44.199Z,24.36
2022-10-17T13:22:47.032Z,24.32
2022-10-17T13:27:53.647Z,24.14
2022-10-17T13:32:56.560Z,24.16
2022-10-17T13:38:01.973Z,24.14
2022-10-17T13:43:06.208Z,24.02
2022-10-17T13:48:19.860Z,23.93
2022-10-17T13:53:27.534Z,23.72
2022-10-17T13:58:42.818Z,23.50
2022-10-17T14:03:48.916Z,23.36
2022-10-17T14:08:56.322Z,23.22
2022-10-17T14:14:01.563Z,23.22
2022-10-17T14:19:05.630Z,23.15
2022-10-17T14:24:17.425Z,23.06
2022-10-17T14:29:25.220Z,23.01
2022-10-17T14:34:32.116Z,22.97
2022-10-17T14:39:34.759Z,22.90
2022-10-17T14:44:38.970Z,22.96
2022-10-17T14:49:42.070Z,23.12
2022-10-17T14:54:46.509Z,23.21
2022-10-17T14:59:55.100Z,23.21
2022-10-17T15:04:58.484Z,23.18
2022-10-17T15:10:01.115Z,23.12
2022-10-17T15:15:05.619Z,23.06
2022-10-17T15:20:13.459Z,23.16
2022-10-17T15:25:16.401Z,23.24
2022-10-17T15:30:23.333Z,23.24
2022-10-17T15:35:26.285Z,23.22
2022-10-17T15:40:30.722Z,23.16
2022-10-17T15:45:35.869Z,23.01
2022-10-17T15:50:38.492Z,22.79
2022-10-17T15:55:41.254Z,22.52
2022-10-17T16:00:46.373Z,22.18
2022-10-17T16:05:49.127Z,21.92
2022-10-17T16:10:52.650Z,21.77
2022-10-17T16:15:56.639Z,21.55
2022-10-17T16:20:59.490Z,21.26
2022-10-17T16:26:02.339Z,21.11
2022-10-17T16:31:06.643Z,20.97
2022-10-17T16:36:10.310Z,20.87
2022-10-17T16:41:21.068Z,20.76
2022-10-17T16:46:26.507Z,20.62
2022-10-17T16:51:29.368Z,20.43
2022-10-17T16:56:32.795Z,20.30
2022-10-17T17:01:37.984Z,20.18
2022-10-17T17:06:40.660Z,20.03
2022-10-17T17:11:43.351Z,19.91
2022-10-17T17:16:47.336Z,19.71
2022-10-17T17:21:51.064Z,19.62
2022-10-17T17:26:55.132Z,19.48
2022-10-17T17:31:59.117Z,19.41
2022-10-17T17:37:01.744Z,19.31
2022-10-17T17:42:04.534Z,19.26
2022-10-17T17:47:08.523Z,19.20
2022-10-17T17:52:11.273Z,19.04
2022-10-17T17:57:13.956Z,18.92
2022-10-17T18:02:18.095Z,18.90
2022-10-17T18:07:20.920Z,18.85
2022-10-17T18:12:23.545Z,18.81
2022-10-17T18:17:27.630Z,18.76
2022-10-17T18:22:30.523Z,18.78
2022-10-17T18:27:33.335Z,18.86
2022-10-17T18:32:37.322Z,18.89
2022-10-17T18:42:47.560Z,18.75
2022-10-17T18:47:52.874Z,18.65
2022-10-17T18:52:55.636Z,18.65
2022-10-17T18:57:59.082Z,18.62
2022-10-17T19:03:04.177Z,18.60
2022-10-17T19:08:06.868Z,18.49
2022-10-17T19:13:10.048Z,18.37
2022-10-17T19:18:14.099Z,18.33
2022-10-17T19:23:16.695Z,18.25
2022-10-17T19:28:19.523Z,18.24
2022-10-17T19:33:23.590Z,18.11
2022-10-17T19:38:26.866Z,18.02
2022-10-17T19:43:29.567Z,17.99
2022-10-17T19:48:34.496Z,17.95
2022-10-17T19:53:37.176Z,17.91
2022-10-17T19:58:46.212Z,17.96
2022-10-17T20:03:50.607Z,17.96
2022-10-17T20:08:53.930Z,17.90
2022-10-17T20:13:57.618Z,17.82
2022-10-17T20:19:09.547Z,17.75
2022-10-17T20:24:14.549Z,17.67
2022-10-17T20:29:19.741Z,17.59
2022-10-17T20:34:23.852Z,17.55
2022-10-17T20:39:26.625Z,17.52
2022-10-17T20:44:29.219Z,17.52
2022-10-17T20:49:33.830Z,17.47
2022-10-17T20:54:36.482Z,17.53
2022-10-17T20:59:39.134Z,17.60
2022-10-17T21:04:47.265Z,17.65
2022-10-17T21:09:49.945Z,17.80
2022-10-17T21:14:52.526Z,17.89
2022-10-17T21:19:56.921Z,17.94
2022-10-17T21:24:59.544Z,17.98
2022-10-17T21:30:02.271Z,18.02
2022-10-17T21:35:07.395Z,18.06
2022-10-17T21:40:11.055Z,18.05
2022-10-17T21:45:15.771Z,18.01
2022-10-17T21:50:24.141Z,17.99
2022-10-17T21:55:26.778Z,18.01
2022-10-17T22:00:29.469Z,17.98
2022-10-17T22:05:33.491Z,18.01
2022-10-17T22:10:37.868Z,18.00
2022-10-17T22:15:40.467Z,17.88
2022-10-17T22:20:44.570Z,17.71
2022-10-17T22:25:54.107Z,17.58
2022-10-17T22:30:58.703Z,17.44
2022-10-17T22:36:03.014Z,17.35
2022-10-17T22:41:06.060Z,17.33
2022-10-17T22:46:09.269Z,17.29
2022-10-17T22:51:13.488Z,17.33
2022-10-17T22:56:18.519Z,17.33
2022-10-17T23:01:22.553Z,17.24
2022-10-17T23:06:26.663Z,17.20
2022-10-17T23:11:29.348Z,17.12
2022-10-17T23:16:31.972Z,17.11
2022-10-17T23:21:36.029Z,17.04
2022-10-17T23:26:38.638Z,16.97
2022-10-17T23:31:41.242Z,16.87
2022-10-17T23:36:45.255Z,16.92
2022-10-17T23:41:47.884Z,16.92
2022-10-17T23:46:50.541Z,16.77
2022-10-17T23:51:54.810Z,16.76
2022-10-17T23:56:57.781Z,16.73
